sensor_id;sensor_type;location;lat;lon;timestamp;P1;durP1;ratioP1;P2;durP2;ratioP2
45764;SDS011;31474;45.332;10.230;2023-07-22T00:00:44;4.35;;;2.72;;
45764;SDS011;31474;45.332;10.230;2023-07-22T00:03:10;4.57;;;2.70;;
45764;SDS011;31474;45.332;10.230;2023-07-22T00:05:36;4.22;;;2.63;;
45764;SDS011;31474;45.332;10.230;2023-07-22T00:08:02;3.88;;;2.83;;
45764;SDS011;31474;45.332;10.230;2023-07-22T00:10:28;3.20;;;2.90;;
45764;SDS011;31474;45.332;10.230;2023-07-22T00:12:54;3.22;;;2.03;;
45764;SDS011;31474;45.332;10.230;2023-07-22T00:15:20;9.82;;;2.78;;
45764;SDS011;31474;45.332;10.230;2023-07-22T00:17:47;3.53;;;2.58;;
45764;SDS011;31474;45.332;10.230;2023-07-22T00:20:13;3.05;;;2.22;;
45764;SDS011;31474;45.332;10.230;2023-07-22T00:22:41;3.97;;;2.90;;
45764;SDS011;31474;45.332;10.230;2023-07-22T00:25:09;4.57;;;2.40;;
45764;SDS011;31474;45.332;10.230;2023-07-22T00:27:39;3.92;;;2.60;;
45764;SDS011;31474;45.332;10.230;2023-07-22T00:30:06;5.32;;;2.75;;
45764;SDS011;31474;45.332;10.230;2023-07-22T00:32:32;3.85;;;1.88;;
45764;SDS011;31474;45.332;10.230;2023-07-22T00:34:58;4.00;;;2.55;;
45764;SDS011;31474;45.332;10.230;2023-07-22T00:37:23;3.38;;;2.63;;
45764;SDS011;31474;45.332;10.230;2023-07-22T00:39:50;3.50;;;2.58;;
45764;SDS011;31474;45.332;10.230;2023-07-22T00:42:16;5.72;;;2.75;;
45764;SDS011;31474;45.332;10.230;2023-07-22T00:44:42;3.90;;;2.67;;
45764;SDS011;31474;45.332;10.230;2023-07-22T00:47:07;4.43;;;2.60;;
45764;SDS011;31474;45.332;10.230;2023-07-22T00:49:33;3.08;;;2.40;;
45764;SDS011;31474;45.332;10.230;2023-07-22T00:52:01;3.15;;;2.60;;
45764;SDS011;31474;45.332;10.230;2023-07-22T00:54:28;2.80;;;2.33;;
45764;SDS011;31474;45.332;10.230;2023-07-22T00:56:55;5.30;;;2.33;;
45764;SDS011;31474;45.332;10.230;2023-07-22T00:59:22;3.40;;;2.28;;
45764;SDS011;31474;45.332;10.230;2023-07-22T01:01:48;4.82;;;2.63;;
45764;SDS011;31474;45.332;10.230;2023-07-22T01:04:14;3.75;;;2.35;;
45764;SDS011;31474;45.332;10.230;2023-07-22T01:06:42;3.33;;;2.30;;
45764;SDS011;31474;45.332;10.230;2023-07-22T01:09:09;5.15;;;3.25;;
45764;SDS011;31474;45.332;10.230;2023-07-22T01:11:35;3.97;;;2.60;;
45764;SDS011;31474;45.332;10.230;2023-07-22T01:14:01;3.90;;;2.92;;
45764;SDS011;31474;45.332;10.230;2023-07-22T01:16:27;3.53;;;2.30;;
45764;SDS011;31474;45.332;10.230;2023-07-22T01:18:53;3.30;;;2.35;;
45764;SDS011;31474;45.332;10.230;2023-07-22T01:21:21;7.43;;;3.35;;
45764;SDS011;31474;45.332;10.230;2023-07-22T01:23:48;7.15;;;2.85;;
45764;SDS011;31474;45.332;10.230;2023-07-22T01:26:15;7.93;;;3.65;;
45764;SDS011;31474;45.332;10.230;2023-07-22T01:28:41;6.78;;;3.00;;
45764;SDS011;31474;45.332;10.230;2023-07-22T01:31:06;5.25;;;3.28;;
45764;SDS011;31474;45.332;10.230;2023-07-22T01:33:32;6.88;;;3.65;;
45764;SDS011;31474;45.332;10.230;2023-07-22T01:35:59;5.47;;;3.45;;
45764;SDS011;31474;45.332;10.230;2023-07-22T01:38:25;5.78;;;3.47;;
45764;SDS011;31474;45.332;10.230;2023-07-22T01:40:51;5.35;;;3.20;;
45764;SDS011;31474;45.332;10.230;2023-07-22T01:43:17;6.28;;;3.67;;
45764;SDS011;31474;45.332;10.230;2023-07-22T01:45:43;4.22;;;3.60;;
45764;SDS011;31474;45.332;10.230;2023-07-22T01:48:09;4.97;;;3.40;;
45764;SDS011;31474;45.332;10.230;2023-07-22T01:50:34;6.43;;;4.10;;
45764;SDS011;31474;45.332;10.230;2023-07-22T01:53:00;5.43;;;3.95;;
45764;SDS011;31474;45.332;10.230;2023-07-22T01:55:26;7.18;;;3.63;;
45764;SDS011;31474;45.332;10.230;2023-07-22T01:57:51;8.32;;;4.30;;
45764;SDS011;31474;45.332;10.230;2023-07-22T02:00:17;9.35;;;4.68;;
45764;SDS011;31474;45.332;10.230;2023-07-22T02:02:43;5.75;;;4.72;;
45764;SDS011;31474;45.332;10.230;2023-07-22T02:05:09;7.45;;;4.78;;
45764;SDS011;31474;45.332;10.230;2023-07-22T02:07:35;7.38;;;4.38;;
45764;SDS011;31474;45.332;10.230;2023-07-22T02:10:01;4.60;;;4.10;;
45764;SDS011;31474;45.332;10.230;2023-07-22T02:12:28;5.40;;;4.10;;
45764;SDS011;31474;45.332;10.230;2023-07-22T02:14:53;8.18;;;4.70;;
45764;SDS011;31474;45.332;10.230;2023-07-22T02:17:19;7.13;;;5.18;;
45764;SDS011;31474;45.332;10.230;2023-07-22T02:19:45;7.68;;;4.65;;
45764;SDS011;31474;45.332;10.230;2023-07-22T02:22:11;7.90;;;4.35;;
45764;SDS011;31474;45.332;10.230;2023-07-22T02:24:37;5.20;;;4.22;;
45764;SDS011;31474;45.332;10.230;2023-07-22T02:27:03;6.03;;;4.57;;
45764;SDS011;31474;45.332;10.230;2023-07-22T02:29:29;7.38;;;4.35;;
45764;SDS011;31474;45.332;10.230;2023-07-22T02:31:58;8.30;;;4.03;;
45764;SDS011;31474;45.332;10.230;2023-07-22T02:34:24;7.45;;;4.47;;
45764;SDS011;31474;45.332;10.230;2023-07-22T02:36:50;7.38;;;4.82;;
45764;SDS011;31474;45.332;10.230;2023-07-22T02:39:15;9.23;;;5.15;;
45764;SDS011;31474;45.332;10.230;2023-07-22T02:41:41;7.97;;;4.82;;
45764;SDS011;31474;45.332;10.230;2023-07-22T02:44:07;7.60;;;4.50;;
45764;SDS011;31474;45.332;10.230;2023-07-22T02:46:33;5.88;;;4.38;;
45764;SDS011;31474;45.332;10.230;2023-07-22T02:48:59;6.57;;;4.82;;
45764;SDS011;31474;45.332;10.230;2023-07-22T02:51:24;7.43;;;4.88;;
45764;SDS011;31474;45.332;10.230;2023-07-22T02:53:50;6.70;;;4.60;;
45764;SDS011;31474;45.332;10.230;2023-07-22T02:56:16;7.03;;;4.55;;
45764;SDS011;31474;45.332;10.230;2023-07-22T02:58:41;6.70;;;5.05;;
45764;SDS011;31474;45.332;10.230;2023-07-22T03:01:08;8.98;;;5.72;;
45764;SDS011;31474;45.332;10.230;2023-07-22T03:03:35;9.48;;;5.32;;
45764;SDS011;31474;45.332;10.230;2023-07-22T03:06:01;6.88;;;5.32;;
45764;SDS011;31474;45.332;10.230;2023-07-22T03:08:28;6.20;;;5.25;;
45764;SDS011;31474;45.332;10.230;2023-07-22T03:10:55;8.18;;;5.55;;
45764;SDS011;31474;45.332;10.230;2023-07-22T03:13:21;8.88;;;5.68;;
45764;SDS011;31474;45.332;10.230;2023-07-22T03:15:46;8.50;;;5.28;;
45764;SDS011;31474;45.332;10.230;2023-07-22T03:18:12;6.25;;;5.05;;
45764;SDS011;31474;45.332;10.230;2023-07-22T03:20:38;11.77;;;6.82;;
45764;SDS011;31474;45.332;10.230;2023-07-22T03:23:04;8.80;;;5.32;;
45764;SDS011;31474;45.332;10.230;2023-07-22T03:25:31;9.50;;;5.18;;
45764;SDS011;31474;45.332;10.230;2023-07-22T03:28:02;7.72;;;5.07;;
45764;SDS011;31474;45.332;10.230;2023-07-22T03:30:29;7.03;;;5.03;;
45764;SDS011;31474;45.332;10.230;2023-07-22T03:32:55;7.93;;;5.75;;
45764;SDS011;31474;45.332;10.230;2023-07-22T03:35:21;8.63;;;5.60;;
45764;SDS011;31474;45.332;10.230;2023-07-22T03:37:47;12.50;;;6.30;;
45764;SDS011;31474;45.332;10.230;2023-07-22T03:40:12;9.05;;;5.22;;
45764;SDS011;31474;45.332;10.230;2023-07-22T03:42:48;13.45;;;6.32;;
45764;SDS011;31474;45.332;10.230;2023-07-22T03:45:15;6.30;;;5.18;;
45764;SDS011;31474;45.332;10.230;2023-07-22T03:47:43;5.55;;;4.82;;
45764;SDS011;31474;45.332;10.230;2023-07-22T03:50:09;8.82;;;5.30;;
45764;SDS011;31474;45.332;10.230;2023-07-22T03:52:35;7.57;;;5.45;;
45764;SDS011;31474;45.332;10.230;2023-07-22T03:55:01;9.77;;;6.22;;
45764;SDS011;31474;45.332;10.230;2023-07-22T03:57:27;10.15;;;6.15;;
45764;SDS011;31474;45.332;10.230;2023-07-22T03:59:54;9.45;;;5.80;;
45764;SDS011;31474;45.332;10.230;2023-07-22T04:02:20;9.05;;;6.03;;
45764;SDS011;31474;45.332;10.230;2023-07-22T04:04:46;8.68;;;6.88;;
45764;SDS011;31474;45.332;10.230;2023-07-22T04:07:12;8.80;;;6.53;;
45764;SDS011;31474;45.332;10.230;2023-07-22T04:09:38;9.27;;;6.38;;
45764;SDS011;31474;45.332;10.230;2023-07-22T04:12:04;7.88;;;5.68;;
45764;SDS011;31474;45.332;10.230;2023-07-22T04:14:30;9.38;;;5.68;;
45764;SDS011;31474;45.332;10.230;2023-07-22T04:16:55;10.20;;;5.78;;
45764;SDS011;31474;45.332;10.230;2023-07-22T04:19:21;7.95;;;5.75;;
45764;SDS011;31474;45.332;10.230;2023-07-22T04:21:47;9.32;;;5.85;;
45764;SDS011;31474;45.332;10.230;2023-07-22T04:24:12;6.72;;;6.10;;
45764;SDS011;31474;45.332;10.230;2023-07-22T04:26:38;8.50;;;5.38;;
45764;SDS011;31474;45.332;10.230;2023-07-22T04:29:05;8.73;;;6.60;;
45764;SDS011;31474;45.332;10.230;2023-07-22T04:31:32;7.50;;;6.25;;
45764;SDS011;31474;45.332;10.230;2023-07-22T04:33:58;13.07;;;6.90;;
45764;SDS011;31474;45.332;10.230;2023-07-22T04:36:24;11.20;;;6.05;;
45764;SDS011;31474;45.332;10.230;2023-07-22T04:38:49;13.70;;;6.32;;
45764;SDS011;31474;45.332;10.230;2023-07-22T04:41:15;9.75;;;6.55;;
45764;SDS011;31474;45.332;10.230;2023-07-22T04:43:41;9.48;;;6.05;;
45764;SDS011;31474;45.332;10.230;2023-07-22T04:46:07;12.25;;;5.93;;
45764;SDS011;31474;45.332;10.230;2023-07-22T04:48:33;7.43;;;5.57;;
45764;SDS011;31474;45.332;10.230;2023-07-22T04:50:59;10.65;;;5.28;;
45764;SDS011;31474;45.332;10.230;2023-07-22T04:53:25;7.75;;;4.75;;
45764;SDS011;31474;45.332;10.230;2023-07-22T04:55:50;12.13;;;4.82;;
45764;SDS011;31474;45.332;10.230;2023-07-22T04:58:16;12.40;;;5.35;;
45764;SDS011;31474;45.332;10.230;2023-07-22T05:00:42;6.32;;;4.68;;
45764;SDS011;31474;45.332;10.230;2023-07-22T05:03:08;4.72;;;4.22;;
45764;SDS011;31474;45.332;10.230;2023-07-22T05:05:34;10.70;;;4.95;;
45764;SDS011;31474;45.332;10.230;2023-07-22T05:08:01;4.90;;;3.85;;
45764;SDS011;31474;45.332;10.230;2023-07-22T05:10:27;4.82;;;3.50;;
45764;SDS011;31474;45.332;10.230;2023-07-22T05:12:54;4.97;;;3.40;;
45764;SDS011;31474;45.332;10.230;2023-07-22T05:15:22;7.13;;;3.58;;
45764;SDS011;31474;45.332;10.230;2023-07-22T05:17:47;6.65;;;2.80;;
45764;SDS011;31474;45.332;10.230;2023-07-22T05:20:13;4.10;;;2.85;;
45764;SDS011;31474;45.332;10.230;2023-07-22T05:22:39;9.82;;;2.67;;
45764;SDS011;31474;45.332;10.230;2023-07-22T05:25:05;7.78;;;2.92;;
45764;SDS011;31474;45.332;10.230;2023-07-22T05:27:32;3.75;;;2.97;;
45764;SDS011;31474;45.332;10.230;2023-07-22T05:29:58;9.68;;;3.08;;
45764;SDS011;31474;45.332;10.230;2023-07-22T05:32:24;3.60;;;3.08;;
45764;SDS011;31474;45.332;10.230;2023-07-22T05:34:49;5.00;;;3.47;;
45764;SDS011;31474;45.332;10.230;2023-07-22T05:37:15;5.45;;;3.50;;
45764;SDS011;31474;45.332;10.230;2023-07-22T05:39:41;4.72;;;2.97;;
45764;SDS011;31474;45.332;10.230;2023-07-22T05:42:06;9.15;;;3.38;;
45764;SDS011;31474;45.332;10.230;2023-07-22T05:44:32;4.05;;;3.00;;
45764;SDS011;31474;45.332;10.230;2023-07-22T05:46:58;9.43;;;2.70;;
45764;SDS011;31474;45.332;10.230;2023-07-22T05:49:23;5.15;;;3.15;;
45764;SDS011;31474;45.332;10.230;2023-07-22T05:51:50;3.42;;;2.70;;
45764;SDS011;31474;45.332;10.230;2023-07-22T05:54:15;5.60;;;3.00;;
45764;SDS011;31474;45.332;10.230;2023-07-22T05:56:42;8.70;;;3.03;;
45764;SDS011;31474;45.332;10.230;2023-07-22T05:59:07;5.00;;;2.95;;
45764;SDS011;31474;45.332;10.230;2023-07-22T06:01:33;3.42;;;2.90;;
45764;SDS011;31474;45.332;10.230;2023-07-22T06:03:59;3.78;;;2.70;;
45764;SDS011;31474;45.332;10.230;2023-07-22T06:06:25;6.25;;;2.70;;
45764;SDS011;31474;45.332;10.230;2023-07-22T06:08:52;6.50;;;3.05;;
45764;SDS011;31474;45.332;10.230;2023-07-22T06:11:17;3.80;;;2.42;;
45764;SDS011;31474;45.332;10.230;2023-07-22T06:13:43;9.00;;;3.53;;
45764;SDS011;31474;45.332;10.230;2023-07-22T06:16:09;4.63;;;2.70;;
45764;SDS011;31474;45.332;10.230;2023-07-22T06:18:34;3.22;;;2.83;;
45764;SDS011;31474;45.332;10.230;2023-07-22T06:21:00;8.77;;;4.15;;
45764;SDS011;31474;45.332;10.230;2023-07-22T06:23:26;4.85;;;3.35;;
45764;SDS011;31474;45.332;10.230;2023-07-22T06:25:51;4.20;;;3.22;;
45764;SDS011;31474;45.332;10.230;2023-07-22T06:28:17;6.70;;;3.40;;
45764;SDS011;31474;45.332;10.230;2023-07-22T06:30:43;4.35;;;3.20;;
45764;SDS011;31474;45.332;10.230;2023-07-22T06:33:09;7.05;;;3.05;;
45764;SDS011;31474;45.332;10.230;2023-07-22T06:35:34;4.10;;;3.38;;
45764;SDS011;31474;45.332;10.230;2023-07-22T06:38:00;4.60;;;2.60;;
45764;SDS011;31474;45.332;10.230;2023-07-22T06:40:26;3.45;;;2.63;;
45764;SDS011;31474;45.332;10.230;2023-07-22T06:42:52;3.53;;;2.55;;
45764;SDS011;31474;45.332;10.230;2023-07-22T06:45:18;7.95;;;2.88;;
45764;SDS011;31474;45.332;10.230;2023-07-22T06:47:44;3.85;;;2.65;;
45764;SDS011;31474;45.332;10.230;2023-07-22T06:50:10;3.70;;;2.35;;
45764;SDS011;31474;45.332;10.230;2023-07-22T06:52:36;3.97;;;2.45;;
45764;SDS011;31474;45.332;10.230;2023-07-22T06:55:01;4.15;;;2.40;;
45764;SDS011;31474;45.332;10.230;2023-07-22T06:57:28;2.83;;;2.03;;
45764;SDS011;31474;45.332;10.230;2023-07-22T06:59:54;3.97;;;2.00;;
45764;SDS011;31474;45.332;10.230;2023-07-22T07:02:20;4.65;;;2.55;;
45764;SDS011;31474;45.332;10.230;2023-07-22T07:04:46;5.78;;;1.83;;
45764;SDS011;31474;45.332;10.230;2023-07-22T07:07:12;6.22;;;1.70;;
45764;SDS011;31474;45.332;10.230;2023-07-22T07:09:39;5.45;;;1.75;;
45764;SDS011;31474;45.332;10.230;2023-07-22T07:12:05;1.73;;;1.15;;
45764;SDS011;31474;45.332;10.230;2023-07-22T07:14:32;2.72;;;1.85;;
45764;SDS011;31474;45.332;10.230;2023-07-22T07:16:59;2.65;;;1.48;;
45764;SDS011;31474;45.332;10.230;2023-07-22T07:19:25;3.67;;;1.75;;
45764;SDS011;31474;45.332;10.230;2023-07-22T07:21:51;1.98;;;1.20;;
45764;SDS011;31474;45.332;10.230;2023-07-22T07:24:17;2.90;;;1.40;;
45764;SDS011;31474;45.332;10.230;2023-07-22T07:26:43;2.58;;;1.73;;
45764;SDS011;31474;45.332;10.230;2023-07-22T07:29:08;3.00;;;1.42;;
45764;SDS011;31474;45.332;10.230;2023-07-22T07:31:34;4.15;;;1.65;;
45764;SDS011;31474;45.332;10.230;2023-07-22T07:34:00;5.43;;;1.75;;
45764;SDS011;31474;45.332;10.230;2023-07-22T07:36:26;2.72;;;1.65;;
45764;SDS011;31474;45.332;10.230;2023-07-22T07:38:52;3.28;;;1.60;;
45764;SDS011;31474;45.332;10.230;2023-07-22T07:41:17;3.15;;;1.73;;
45764;SDS011;31474;45.332;10.230;2023-07-22T07:43:43;2.83;;;1.70;;
45764;SDS011;31474;45.332;10.230;2023-07-22T07:48:45;4.60;;;2.00;;
45764;SDS011;31474;45.332;10.230;2023-07-22T07:51:12;3.05;;;1.50;;
45764;SDS011;31474;45.332;10.230;2023-07-22T07:53:43;2.35;;;1.50;;
45764;SDS011;31474;45.332;10.230;2023-07-22T07:56:09;2.90;;;1.42;;
45764;SDS011;31474;45.332;10.230;2023-07-22T07:58:35;2.75;;;1.80;;
45764;SDS011;31474;45.332;10.230;2023-07-22T08:01:02;2.30;;;1.90;;
45764;SDS011;31474;45.332;10.230;2023-07-22T08:03:28;2.90;;;1.73;;
45764;SDS011;31474;45.332;10.230;2023-07-22T08:05:53;3.58;;;1.55;;
45764;SDS011;31474;45.332;10.230;2023-07-22T08:08:19;2.45;;;1.10;;
45764;SDS011;31474;45.332;10.230;2023-07-22T08:10:46;3.25;;;1.83;;
45764;SDS011;31474;45.332;10.230;2023-07-22T08:13:11;2.35;;;1.45;;
45764;SDS011;31474;45.332;10.230;2023-07-22T08:15:37;2.47;;;1.70;;
45764;SDS011;31474;45.332;10.230;2023-07-22T08:18:03;5.32;;;2.25;;
45764;SDS011;31474;45.332;10.230;2023-07-22T08:20:29;3.28;;;1.70;;
45764;SDS011;31474;45.332;10.230;2023-07-22T08:22:55;2.97;;;1.65;;
45764;SDS011;31474;45.332;10.230;2023-07-22T08:25:21;5.95;;;1.85;;
45764;SDS011;31474;45.332;10.230;2023-07-22T08:27:47;3.63;;;2.00;;
45764;SDS011;31474;45.332;10.230;2023-07-22T08:30:12;3.20;;;1.35;;
45764;SDS011;31474;45.332;10.230;2023-07-22T08:32:38;3.60;;;1.85;;
45764;SDS011;31474;45.332;10.230;2023-07-22T08:35:04;4.72;;;1.95;;
45764;SDS011;31474;45.332;10.230;2023-07-22T08:37:31;3.38;;;1.85;;
45764;SDS011;31474;45.332;10.230;2023-07-22T08:39:56;3.80;;;1.90;;
45764;SDS011;31474;45.332;10.230;2023-07-22T08:42:22;2.95;;;1.23;;
45764;SDS011;31474;45.332;10.230;2023-07-22T08:44:50;2.80;;;1.52;;
45764;SDS011;31474;45.332;10.230;2023-07-22T08:47:21;2.10;;;1.50;;
45764;SDS011;31474;45.332;10.230;2023-07-22T08:49:50;2.92;;;1.52;;
45764;SDS011;31474;45.332;10.230;2023-07-22T08:52:21;3.70;;;1.70;;
45764;SDS011;31474;45.332;10.230;2023-07-22T08:54:47;4.97;;;1.15;;
45764;SDS011;31474;45.332;10.230;2023-07-22T08:57:14;6.10;;;2.00;;
45764;SDS011;31474;45.332;10.230;2023-07-22T08:59:41;2.75;;;1.70;;
45764;SDS011;31474;45.332;10.230;2023-07-22T09:02:08;2.90;;;1.70;;
45764;SDS011;31474;45.332;10.230;2023-07-22T09:04:38;3.80;;;2.55;;
45764;SDS011;31474;45.332;10.230;2023-07-22T09:07:05;3.90;;;1.63;;
45764;SDS011;31474;45.332;10.230;2023-07-22T09:09:33;5.80;;;1.63;;
45764;SDS011;31474;45.332;10.230;2023-07-22T09:11:59;2.13;;;1.20;;
45764;SDS011;31474;45.332;10.230;2023-07-22T09:14:26;1.75;;;1.30;;
45764;SDS011;31474;45.332;10.230;2023-07-22T09:16:53;3.10;;;1.75;;
45764;SDS011;31474;45.332;10.230;2023-07-22T09:19:18;3.53;;;1.70;;
45764;SDS011;31474;45.332;10.230;2023-07-22T09:21:44;4.43;;;1.63;;
45764;SDS011;31474;45.332;10.230;2023-07-22T09:24:19;2.10;;;1.60;;
45764;SDS011;31474;45.332;10.230;2023-07-22T09:26:46;4.07;;;1.25;;
45764;SDS011;31474;45.332;10.230;2023-07-22T09:29:11;2.75;;;1.58;;
45764;SDS011;31474;45.332;10.230;2023-07-22T09:31:48;2.35;;;1.25;;
45764;SDS011;31474;45.332;10.230;2023-07-22T09:34:17;2.72;;;1.38;;
45764;SDS011;31474;45.332;10.230;2023-07-22T09:36:53;2.58;;;1.42;;
45764;SDS011;31474;45.332;10.230;2023-07-22T09:39:25;3.70;;;1.40;;
45764;SDS011;31474;45.332;10.230;2023-07-22T09:41:51;4.53;;;1.33;;
45764;SDS011;31474;45.332;10.230;2023-07-22T09:44:18;1.70;;;1.23;;
45764;SDS011;31474;45.332;10.230;2023-07-22T09:46:47;2.90;;;2.15;;
45764;SDS011;31474;45.332;10.230;2023-07-22T09:49:14;3.20;;;1.50;;
45764;SDS011;31474;45.332;10.230;2023-07-22T09:51:41;4.75;;;1.83;;
45764;SDS011;31474;45.332;10.230;2023-07-22T09:54:07;4.40;;;1.60;;
45764;SDS011;31474;45.332;10.230;2023-07-22T09:56:42;3.88;;;1.45;;
45764;SDS011;31474;45.332;10.230;2023-07-22T09:59:10;2.60;;;1.83;;
45764;SDS011;31474;45.332;10.230;2023-07-22T10:01:38;3.78;;;2.03;;
45764;SDS011;31474;45.332;10.230;2023-07-22T10:04:04;3.28;;;1.77;;
45764;SDS011;31474;45.332;10.230;2023-07-22T10:06:32;5.68;;;1.73;;
45764;SDS011;31474;45.332;10.230;2023-07-22T10:09:02;2.03;;;1.23;;
45764;SDS011;31474;45.332;10.230;2023-07-22T10:11:32;4.50;;;1.85;;
45764;SDS011;31474;45.332;10.230;2023-07-22T10:13:59;3.03;;;1.80;;
45764;SDS011;31474;45.332;10.230;2023-07-22T10:16:26;3.03;;;1.58;;
45764;SDS011;31474;45.332;10.230;2023-07-22T10:18:53;2.78;;;1.45;;
45764;SDS011;31474;45.332;10.230;2023-07-22T10:21:20;2.25;;;1.70;;
45764;SDS011;31474;45.332;10.230;2023-07-22T10:23:47;3.50;;;1.73;;
45764;SDS011;31474;45.332;10.230;2023-07-22T10:26:17;2.40;;;1.55;;
45764;SDS011;31474;45.332;10.230;2023-07-22T10:28:47;2.25;;;1.83;;
45764;SDS011;31474;45.332;10.230;2023-07-22T10:31:13;4.47;;;1.60;;
45764;SDS011;31474;45.332;10.230;2023-07-22T10:33:44;7.72;;;1.88;;
45764;SDS011;31474;45.332;10.230;2023-07-22T10:36:14;7.00;;;2.10;;
45764;SDS011;31474;45.332;10.230;2023-07-22T10:38:42;7.63;;;2.03;;
45764;SDS011;31474;45.332;10.230;2023-07-22T10:41:14;4.30;;;2.28;;
45764;SDS011;31474;45.332;10.230;2023-07-22T10:43:56;4.95;;;1.98;;
45764;SDS011;31474;45.332;10.230;2023-07-22T10:46:36;6.40;;;2.38;;
45764;SDS011;31474;45.332;10.230;2023-07-22T10:54:12;3.53;;;2.00;;
45764;SDS011;31474;45.332;10.230;2023-07-22T10:56:45;6.07;;;3.25;;
45764;SDS011;31474;45.332;10.230;2023-07-22T10:59:11;3.80;;;2.95;;
45764;SDS011;31474;45.332;10.230;2023-07-22T11:01:38;6.65;;;3.50;;
45764;SDS011;31474;45.332;10.230;2023-07-22T11:14:50;4.78;;;2.70;;
45764;SDS011;31474;45.332;10.230;2023-07-22T11:17:18;5.10;;;3.40;;
45764;SDS011;31474;45.332;10.230;2023-07-22T11:19:55;7.22;;;3.95;;
45764;SDS011;31474;45.332;10.230;2023-07-22T11:22:21;4.20;;;2.85;;
45764;SDS011;31474;45.332;10.230;2023-07-22T11:24:46;6.72;;;2.90;;
45764;SDS011;31474;45.332;10.230;2023-07-22T11:27:12;7.60;;;3.88;;
45764;SDS011;31474;45.332;10.230;2023-07-22T11:29:38;6.90;;;3.88;;
45764;SDS011;31474;45.332;10.230;2023-07-22T11:32:05;5.47;;;3.65;;
45764;SDS011;31474;45.332;10.230;2023-07-22T11:34:31;3.90;;;3.15;;
45764;SDS011;31474;45.332;10.230;2023-07-22T11:36:57;4.38;;;3.20;;
45764;SDS011;31474;45.332;10.230;2023-07-22T11:39:24;6.15;;;3.65;;
45764;SDS011;31474;45.332;10.230;2023-07-22T11:41:51;7.18;;;3.25;;
45764;SDS011;31474;45.332;10.230;2023-07-22T11:44:18;3.20;;;2.20;;
45764;SDS011;31474;45.332;10.230;2023-07-22T11:46:47;4.43;;;2.80;;
45764;SDS011;31474;45.332;10.230;2023-07-22T11:49:26;4.28;;;2.97;;
45764;SDS011;31474;45.332;10.230;2023-07-22T11:51:54;4.45;;;2.65;;
45764;SDS011;31474;45.332;10.230;2023-07-22T11:54:24;4.95;;;2.42;;
45764;SDS011;31474;45.332;10.230;2023-07-22T11:56:50;6.95;;;3.17;;
45764;SDS011;31474;45.332;10.230;2023-07-22T11:59:16;4.18;;;2.63;;
45764;SDS011;31474;45.332;10.230;2023-07-22T12:01:43;4.28;;;2.40;;
45764;SDS011;31474;45.332;10.230;2023-07-22T12:04:11;3.90;;;2.88;;
45764;SDS011;31474;45.332;10.230;2023-07-22T12:06:38;4.22;;;2.90;;
45764;SDS011;31474;45.332;10.230;2023-07-22T12:09:04;4.45;;;3.22;;
45764;SDS011;31474;45.332;10.230;2023-07-22T12:11:32;4.68;;;3.10;;
45764;SDS011;31474;45.332;10.230;2023-07-22T12:14:05;5.18;;;2.78;;
45764;SDS011;31474;45.332;10.230;2023-07-22T12:16:39;6.45;;;3.03;;
45764;SDS011;31474;45.332;10.230;2023-07-22T12:19:06;3.25;;;2.53;;
45764;SDS011;31474;45.332;10.230;2023-07-22T12:21:32;6.28;;;2.83;;
45764;SDS011;31474;45.332;10.230;2023-07-22T12:23:58;5.07;;;2.75;;
45764;SDS011;31474;45.332;10.230;2023-07-22T12:26:24;6.28;;;3.05;;
45764;SDS011;31474;45.332;10.230;2023-07-22T12:28:50;5.88;;;2.78;;
45764;SDS011;31474;45.332;10.230;2023-07-22T12:31:16;5.20;;;2.85;;
45764;SDS011;31474;45.332;10.230;2023-07-22T12:33:42;3.75;;;2.20;;
45764;SDS011;31474;45.332;10.230;2023-07-22T12:36:08;5.00;;;2.58;;
45764;SDS011;31474;45.332;10.230;2023-07-22T12:38:34;3.58;;;2.30;;
45764;SDS011;31474;45.332;10.230;2023-07-22T12:41:00;3.35;;;2.65;;
45764;SDS011;31474;45.332;10.230;2023-07-22T12:43:26;4.82;;;2.78;;
45764;SDS011;31474;45.332;10.230;2023-07-22T12:45:52;5.05;;;2.10;;
45764;SDS011;31474;45.332;10.230;2023-07-22T12:48:17;6.43;;;3.20;;
45764;SDS011;31474;45.332;10.230;2023-07-22T12:50:43;3.53;;;2.90;;
45764;SDS011;31474;45.332;10.230;2023-07-22T12:53:09;6.22;;;3.17;;
45764;SDS011;31474;45.332;10.230;2023-07-22T12:55:35;4.60;;;2.95;;
45764;SDS011;31474;45.332;10.230;2023-07-22T12:58:01;3.90;;;2.35;;
45764;SDS011;31474;45.332;10.230;2023-07-22T13:00:27;4.97;;;3.05;;
45764;SDS011;31474;45.332;10.230;2023-07-22T13:02:53;3.58;;;2.17;;
45764;SDS011;31474;45.332;10.230;2023-07-22T13:05:19;4.82;;;2.72;;
45764;SDS011;31474;45.332;10.230;2023-07-22T13:07:44;4.70;;;2.95;;
45764;SDS011;31474;45.332;10.230;2023-07-22T13:10:10;3.47;;;2.50;;
45764;SDS011;31474;45.332;10.230;2023-07-22T13:12:39;3.97;;;2.35;;
45764;SDS011;31474;45.332;10.230;2023-07-22T13:15:05;9.85;;;2.72;;
45764;SDS011;31474;45.332;10.230;2023-07-22T13:17:31;4.93;;;2.70;;
45764;SDS011;31474;45.332;10.230;2023-07-22T13:19:57;4.97;;;3.08;;
45764;SDS011;31474;45.332;10.230;2023-07-22T13:22:22;4.05;;;2.38;;
45764;SDS011;31474;45.332;10.230;2023-07-22T13:24:48;4.15;;;2.25;;
45764;SDS011;31474;45.332;10.230;2023-07-22T13:27:14;3.40;;;1.98;;
45764;SDS011;31474;45.332;10.230;2023-07-22T13:29:39;3.58;;;2.42;;
45764;SDS011;31474;45.332;10.230;2023-07-22T13:32:05;4.75;;;2.22;;
45764;SDS011;31474;45.332;10.230;2023-07-22T13:34:31;4.75;;;2.30;;
45764;SDS011;31474;45.332;10.230;2023-07-22T13:36:57;3.17;;;2.20;;
45764;SDS011;31474;45.332;10.230;2023-07-22T13:39:23;4.20;;;2.33;;
45764;SDS011;31474;45.332;10.230;2023-07-22T13:41:49;6.55;;;2.45;;
45764;SDS011;31474;45.332;10.230;2023-07-22T13:44:15;4.43;;;2.20;;
45764;SDS011;31474;45.332;10.230;2023-07-22T13:46:41;5.60;;;2.83;;
45764;SDS011;31474;45.332;10.230;2023-07-22T13:49:07;3.28;;;2.03;;
45764;SDS011;31474;45.332;10.230;2023-07-22T13:51:32;6.55;;;2.70;;
45764;SDS011;31474;45.332;10.230;2023-07-22T13:53:59;4.35;;;2.47;;
45764;SDS011;31474;45.332;10.230;2023-07-22T13:56:24;3.55;;;2.30;;
45764;SDS011;31474;45.332;10.230;2023-07-22T13:58:50;4.07;;;2.50;;
45764;SDS011;31474;45.332;10.230;2023-07-22T14:01:17;3.05;;;2.40;;
45764;SDS011;31474;45.332;10.230;2023-07-22T14:03:43;4.18;;;2.30;;
45764;SDS011;31474;45.332;10.230;2023-07-22T14:06:08;4.72;;;2.83;;
45764;SDS011;31474;45.332;10.230;2023-07-22T14:08:34;3.75;;;2.17;;
45764;SDS011;31474;45.332;10.230;2023-07-22T14:10:59;4.28;;;2.75;;
45764;SDS011;31474;45.332;10.230;2023-07-22T14:13:25;6.78;;;2.60;;
45764;SDS011;31474;45.332;10.230;2023-07-22T14:15:51;2.53;;;2.17;;
45764;SDS011;31474;45.332;10.230;2023-07-22T14:18:17;5.30;;;3.17;;
45764;SDS011;31474;45.332;10.230;2023-07-22T14:20:44;6.30;;;2.72;;
45764;SDS011;31474;45.332;10.230;2023-07-22T14:23:10;3.38;;;2.47;;
45764;SDS011;31474;45.332;10.230;2023-07-22T14:25:36;4.22;;;2.30;;
45764;SDS011;31474;45.332;10.230;2023-07-22T14:28:02;5.13;;;2.58;;
45764;SDS011;31474;45.332;10.230;2023-07-22T14:30:28;3.13;;;2.83;;
45764;SDS011;31474;45.332;10.230;2023-07-22T14:32:53;5.63;;;2.92;;
45764;SDS011;31474;45.332;10.230;2023-07-22T14:35:20;7.57;;;3.25;;
45764;SDS011;31474;45.332;10.230;2023-07-22T14:37:46;5.28;;;3.45;;
45764;SDS011;31474;45.332;10.230;2023-07-22T14:40:12;3.47;;;2.47;;
45764;SDS011;31474;45.332;10.230;2023-07-22T14:42:37;4.53;;;2.55;;
45764;SDS011;31474;45.332;10.230;2023-07-22T14:45:03;4.35;;;2.90;;
45764;SDS011;31474;45.332;10.230;2023-07-22T14:47:30;6.13;;;2.85;;